sensor_id;sensor_type;location;lat;lon;timestamp;pressure;altitude;pressure_sealevel;temperature;humidity
22662;BME280;11497;52.222;21.246;2022-09-24T00:01:48;100500.63;;;6.63;100.00
22662;BME280;11497;52.222;21.246;2022-09-24T00:04:17;100498.19;;;6.53;100.00
22662;BME280;11497;52.222;21.246;2022-09-24T00:06:46;100505.09;;;6.54;100.00
22662;BME280;11497;52.222;21.246;2022-09-24T00:09:18;100511.34;;;6.42;100.00
22662;BME280;11497;52.222;21.246;2022-09-24T00:11:49;100510.59;;;6.36;100.00
22662;BME280;11497;52.222;21.246;2022-09-24T00:14:17;100506.97;;;6.46;100.00
22662;BME280;11497;52.222;21.246;2022-09-24T00:16:45;100493.22;;;6.38;100.00
22662;BME280;11497;52.222;21.246;2022-09-24T00:19:13;100498.56;;;6.28;100.00
22662;BME280;11497;52.222;21.246;2022-09-24T00:21:41;100496.00;;;6.24;100.00
22662;BME280;11497;52.222;21.246;2022-09-24T00:24:13;100496.06;;;6.19;100.00
22662;BME280;11497;52.222;21.246;2022-09-24T00:27:00;100499.59;;;6.15;100.00
22662;BME280;11497;52.222;21.246;2022-09-24T00:29:29;100493.63;;;6.07;100.00
22662;BME280;11497;52.222;21.246;2022-09-24T00:32:01;100490.22;;;6.05;100.00
22662;BME280;11497;52.222;21.246;2022-09-24T00:34:29;100492.56;;;6.22;100.00
22662;BME280;11497;52.222;21.246;2022-09-24T00:36:57;100490.84;;;6.22;100.00
22662;BME280;11497;52.222;21.246;2022-09-24T00:39:26;100492.72;;;6.11;100.00
22662;BME280;11497;52.222;21.246;2022-09-24T00:41:54;100488.50;;;6.04;100.00
22662;BME280;11497;52.222;21.246;2022-09-24T00:49:49;100491.19;;;5.98;100.00
22662;BME280;11497;52.222;21.246;2022-09-24T00:52:18;100493.81;;;5.95;100.00
22662;BME280;11497;52.222;21.246;2022-09-24T00:54:46;100490.38;;;5.93;100.00
22662;BME280;11497;52.222;21.246;2022-09-24T00:57:14;100486.94;;;5.88;100.00
22662;BME280;11497;52.222;21.246;2022-09-24T00:59:43;100488.72;;;5.83;100.00
22662;BME280;11497;52.222;21.246;2022-09-24T01:02:11;100489.59;;;5.83;100.00
22662;BME280;11497;52.222;21.246;2022-09-24T01:04:40;100492.25;;;5.79;100.00
22662;BME280;11497;52.222;21.246;2022-09-24T01:07:08;100487.13;;;5.73;100.00
22662;BME280;11497;52.222;21.246;2022-09-24T01:09:35;100485.47;;;5.65;100.00
22662;BME280;11497;52.222;21.246;2022-09-24T01:12:27;100484.59;;;5.65;100.00
22662;BME280;11497;52.222;21.246;2022-09-24T01:15:19;100482.13;;;5.57;100.00
22662;BME280;11497;52.222;21.246;2022-09-24T01:18:45;100482.13;;;5.57;100.00
22662;BME280;11497;52.222;21.246;2022-09-24T01:27:18;100470.13;;;5.47;100.00
22662;BME280;11497;52.222;21.246;2022-09-24T01:29:52;100479.72;;;5.41;100.00
22662;BME280;11497;52.222;21.246;2022-09-24T01:38:05;100466.75;;;5.39;100.00
22662;BME280;11497;52.222;21.246;2022-09-24T01:40:37;100465.06;;;5.35;100.00
22662;BME280;11497;52.222;21.246;2022-09-24T01:43:07;100468.59;;;5.26;100.00
22662;BME280;11497;52.222;21.246;2022-09-24T01:45:37;100460.09;;;5.17;100.00
22662;BME280;11497;52.222;21.246;2022-09-24T01:48:06;100468.78;;;5.13;100.00
22662;BME280;11497;52.222;21.246;2022-09-24T01:51:25;100473.97;;;5.13;100.00
22662;BME280;11497;52.222;21.246;2022-09-24T01:54:41;100478.22;;;5.18;100.00
22662;BME280;11497;52.222;21.246;2022-09-24T01:56:46;100476.56;;;5.13;100.00
22662;BME280;11497;52.222;21.246;2022-09-24T01:59:24;100474.03;;;5.04;100.00
22662;BME280;11497;52.222;21.246;2022-09-24T02:02:01;100477.56;;;4.96;100.00
22662;BME280;11497;52.222;21.246;2022-09-24T02:04:35;100474.94;;;5.01;100.00
22662;BME280;11497;52.222;21.246;2022-09-24T02:07:11;100472.09;;;5.24;100.00
22662;BME280;11497;52.222;21.246;2022-09-24T02:09:42;100467.06;;;5.12;100.00
22662;BME280;11497;52.222;21.246;2022-09-24T02:12:37;100461.97;;;4.99;100.00
22662;BME280;11497;52.222;21.246;2022-09-24T02:15:16;100467.19;;;4.96;100.00
22662;BME280;11497;52.222;21.246;2022-09-24T02:17:52;100472.44;;;4.87;100.00
22662;BME280;11497;52.222;21.246;2022-09-24T02:20:23;100469.03;;;4.82;100.00
22662;BME280;11497;52.222;21.246;2022-09-24T02:22:55;100465.69;;;4.71;100.00
22662;BME280;11497;52.222;21.246;2022-09-24T02:25:42;100476.09;;;4.68;100.00
22662;BME280;11497;52.222;21.246;2022-09-24T02:28:14;100473.50;;;4.66;100.00
22662;BME280;11497;52.222;21.246;2022-09-24T02:30:45;100471.78;;;4.65;100.00
22662;BME280;11497;52.222;21.246;2022-09-24T02:33:15;100477.84;;;4.63;100.00
22662;BME280;11497;52.222;21.246;2022-09-24T02:36:02;100471.00;;;4.53;100.00
22662;BME280;11497;52.222;21.246;2022-09-24T02:38:30;100461.50;;;4.55;100.00
22662;BME280;11497;52.222;21.246;2022-09-24T02:40:58;100466.72;;;4.49;100.00
22662;BME280;11497;52.222;21.246;2022-09-24T02:43:26;100466.69;;;4.53;100.00
22662;BME280;11497;52.222;21.246;2022-09-24T02:45:54;100465.84;;;4.50;100.00
22662;BME280;11497;52.222;21.246;2022-09-24T02:48:22;100460.69;;;4.47;100.00
22662;BME280;11497;52.222;21.246;2022-09-24T02:50:49;100458.09;;;4.48;100.00
22662;BME280;11497;52.222;21.246;2022-09-24T02:53:17;100463.19;;;4.59;100.00
22662;BME280;11497;52.222;21.246;2022-09-24T02:55:45;100464.94;;;4.55;100.00
22662;BME280;11497;52.222;21.246;2022-09-24T02:58:13;100462.38;;;4.51;100.00
22662;BME280;11497;52.222;21.246;2022-09-24T03:00:41;100459.00;;;4.40;100.00
22662;BME280;11497;52.222;21.246;2022-09-24T03:03:09;100465.06;;;4.40;100.00
22662;BME280;11497;52.222;21.246;2022-09-24T03:05:36;100462.47;;;4.39;100.00
22662;BME280;11497;52.222;21.246;2022-09-24T03:08:04;100457.28;;;4.39;100.00
22662;BME280;11497;52.222;21.246;2022-09-24T03:10:33;100459.91;;;4.34;100.00
22662;BME280;11497;52.222;21.246;2022-09-24T03:13:02;100455.69;;;4.25;100.00
22662;BME280;11497;52.222;21.246;2022-09-24T03:15:30;100454.81;;;4.26;100.00
22662;BME280;11497;52.222;21.246;2022-09-24T03:17:58;100449.59;;;4.31;100.00
22662;BME280;11497;52.222;21.246;2022-09-24T03:20:25;100449.66;;;4.23;100.00
22662;BME280;11497;52.222;21.246;2022-09-24T03:22:53;100455.69;;;4.25;100.00
22662;BME280;11497;52.222;21.246;2022-09-24T03:25:21;100453.75;;;4.49;100.00
22662;BME280;11497;52.222;21.246;2022-09-24T03:27:49;100460.66;;;4.53;100.00
22662;BME280;11497;52.222;21.246;2022-09-24T03:30:17;100451.25;;;4.35;100.00
22662;BME280;11497;52.222;21.246;2022-09-24T03:33:03;100457.41;;;4.23;100.00
22662;BME280;11497;52.222;21.246;2022-09-24T03:35:31;100457.44;;;4.17;100.00
22662;BME280;11497;52.222;21.246;2022-09-24T03:37:59;100450.59;;;4.07;100.00
22662;BME280;11497;52.222;21.246;2022-09-24T03:40:26;100454.91;;;4.11;100.00
22662;BME280;11497;52.222;21.246;2022-09-24T03:42:54;100455.78;;;4.06;100.00
22662;BME280;11497;52.222;21.246;2022-09-24T03:45:22;100458.41;;;3.98;100.00
22662;BME280;11497;52.222;21.246;2022-09-24T03:47:49;100457.47;;;4.14;100.00
22662;BME280;11497;52.222;21.246;2022-09-24T03:50:17;100465.22;;;4.16;100.00
22662;BME280;11497;52.222;21.246;2022-09-24T03:52:45;100461.63;;;4.35;100.00
22662;BME280;11497;52.222;21.246;2022-09-24T03:55:13;100456.53;;;4.29;100.00
22662;BME280;11497;52.222;21.246;2022-09-24T03:57:40;100461.78;;;4.15;100.00
22662;BME280;11497;52.222;21.246;2022-09-24T04:00:08;100460.97;;;4.07;100.00
22662;BME280;11497;52.222;21.246;2022-09-24T04:02:36;100454.06;;;4.03;100.00
22662;BME280;11497;52.222;21.246;2022-09-24T04:05:06;100466.16;;;4.04;100.00
22662;BME280;11497;52.222;21.246;2022-09-24T04:07:34;100460.94;;;4.10;100.00
22662;BME280;11497;52.222;21.246;2022-09-24T04:10:02;100460.09;;;4.08;100.00
22662;BME280;11497;52.222;21.246;2022-09-24T04:12:30;100459.28;;;3.98;100.00
22662;BME280;11497;52.222;21.246;2022-09-24T04:14:58;100459.19;;;4.15;100.00
22662;BME280;11497;52.222;21.246;2022-09-24T04:17:26;100470.34;;;4.25;100.00
22662;BME280;11497;52.222;21.246;2022-09-24T04:19:59;100466.75;;;4.44;100.00
22662;BME280;11497;52.222;21.246;2022-09-24T04:22:28;100458.97;;;4.46;100.00
22662;BME280;11497;52.222;21.246;2022-09-24T04:24:56;100454.66;;;4.43;100.00
22662;BME280;11497;52.222;21.246;2022-09-24T04:27:24;100450.41;;;4.36;100.00
22662;BME280;11497;52.222;21.246;2022-09-24T04:29:52;100459.84;;;4.43;100.00
22662;BME280;11497;52.222;21.246;2022-09-24T04:32:20;100459.75;;;4.57;100.00
22662;BME280;11497;52.222;21.246;2022-09-24T04:34:48;100463.13;;;4.66;100.00
22662;BME280;11497;52.222;21.246;2022-09-24T04:37:16;100456.19;;;4.70;100.00
22662;BME280;11497;52.222;21.246;2022-09-24T04:39:43;100467.34;;;4.78;100.00
22662;BME280;11497;52.222;21.246;2022-09-24T04:42:16;100462.09;;;4.84;100.00
22662;BME280;11497;52.222;21.246;2022-09-24T04:44:44;100457.03;;;4.75;100.00
22662;BME280;11497;52.222;21.246;2022-09-24T04:47:14;100462.97;;;4.85;100.00
22662;BME280;11497;52.222;21.246;2022-09-24T04:49:42;100451.69;;;4.90;100.00
22662;BME280;11497;52.222;21.246;2022-09-24T04:52:12;100462.84;;;5.00;100.00
22662;BME280;11497;52.222;21.246;2022-09-24T04:54:42;100465.34;;;5.08;100.00
22662;BME280;11497;52.222;21.246;2022-09-24T04:57:14;100465.31;;;5.14;100.00
22662;BME280;11497;52.222;21.246;2022-09-24T04:59:43;100464.31;;;5.24;100.00
22662;BME280;11497;52.222;21.246;2022-09-24T05:02:10;100470.38;;;5.23;100.00
22662;BME280;11497;52.222;21.246;2022-09-24T05:04:39;100475.50;;;5.29;100.00
22662;BME280;11497;52.222;21.246;2022-09-24T05:07:06;100471.97;;;5.36;100.00
22662;BME280;11497;52.222;21.246;2022-09-24T05:09:35;100471.94;;;5.39;100.00
22662;BME280;11497;52.222;21.246;2022-09-24T05:12:04;100471.84;;;5.48;100.00
22662;BME280;11497;52.222;21.246;2022-09-24T05:14:32;100461.88;;;5.84;100.00
22662;BME280;11497;52.222;21.246;2022-09-24T05:16:59;100472.91;;;6.04;98.41
22662;BME280;11497;52.222;21.246;2022-09-24T05:19:27;100473.97;;;5.86;97.71
22662;BME280;11497;52.222;21.246;2022-09-24T05:21:55;100476.53;;;5.91;97.33
22662;BME280;11497;52.222;21.246;2022-09-24T05:24:23;100478.84;;;6.12;97.40
22662;BME280;11497;52.222;21.246;2022-09-24T05:26:50;100462.31;;;6.16;96.97
22662;BME280;11497;52.222;21.246;2022-09-24T05:29:39;100470.75;;;6.33;97.09
22662;BME280;11497;52.222;21.246;2022-09-24T05:32:10;100465.34;;;6.49;96.49
22662;BME280;11497;52.222;21.246;2022-09-24T05:34:39;100468.91;;;6.42;95.28
22662;BME280;11497;52.222;21.246;2022-09-24T05:37:08;100466.34;;;6.39;95.36
22662;BME280;11497;52.222;21.246;2022-09-24T05:39:36;100466.03;;;6.58;95.72
22662;BME280;11497;52.222;21.246;2022-09-24T05:42:04;100465.72;;;6.78;95.56
22662;BME280;11497;52.222;21.246;2022-09-24T05:44:32;100470.13;;;7.22;94.28
22662;BME280;11497;52.222;21.246;2022-09-24T05:47:00;100468.75;;;7.49;92.38
22662;BME280;11497;52.222;21.246;2022-09-24T05:49:28;100473.72;;;7.61;91.67
22662;BME280;11497;52.222;21.246;2022-09-24T05:51:55;100471.69;;;7.76;90.45
22662;BME280;11497;52.222;21.246;2022-09-24T05:54:23;100475.34;;;8.09;89.98
22662;BME280;11497;52.222;21.246;2022-09-24T05:56:51;100474.88;;;8.28;88.73
22662;BME280;11497;52.222;21.246;2022-09-24T05:59:19;100475.66;;;8.33;88.15
22662;BME280;11497;52.222;21.246;2022-09-24T06:01:46;100478.97;;;8.42;87.63
22662;BME280;11497;52.222;21.246;2022-09-24T06:04:15;100484.63;;;8.60;87.29
22662;BME280;11497;52.222;21.246;2022-09-24T06:06:43;100484.16;;;8.79;86.23
22662;BME280;11497;52.222;21.246;2022-09-24T06:09:11;100480.97;;;9.02;84.95
22662;BME280;11497;52.222;21.246;2022-09-24T06:11:39;100477.69;;;8.93;85.10
22662;BME280;11497;52.222;21.246;2022-09-24T06:14:07;100485.94;;;9.11;85.08
22662;BME280;11497;52.222;21.246;2022-09-24T06:16:36;100478.38;;;9.34;83.96
22662;BME280;11497;52.222;21.246;2022-09-24T06:19:04;100495.25;;;9.53;83.50
22662;BME280;11497;52.222;21.246;2022-09-24T06:21:32;100487.28;;;9.58;82.67
22662;BME280;11497;52.222;21.246;2022-09-24T06:24:00;100493.72;;;9.77;82.39
22662;BME280;11497;52.222;21.246;2022-09-24T06:26:28;100493.09;;;9.98;81.82
22662;BME280;11497;52.222;21.246;2022-09-24T06:28:55;100489.75;;;10.24;80.93
22662;BME280;11497;52.222;21.246;2022-09-24T06:31:30;100492.81;;;10.39;78.89
22662;BME280;11497;52.222;21.246;2022-09-24T06:33:58;100492.72;;;10.11;78.98
22662;BME280;11497;52.222;21.246;2022-09-24T06:36:26;100496.63;;;10.55;78.43
22662;BME280;11497;52.222;21.246;2022-09-24T06:38:54;100492.59;;;10.45;78.24
22662;BME280;11497;52.222;21.246;2022-09-24T06:41:22;100485.53;;;10.47;78.46
22662;BME280;11497;52.222;21.246;2022-09-24T06:43:53;100497.16;;;10.92;77.63
22662;BME280;11497;52.222;21.246;2022-09-24T06:46:21;100494.13;;;11.05;77.17
22662;BME280;11497;52.222;21.246;2022-09-24T06:48:52;100491.47;;;11.31;77.21
22662;BME280;11497;52.222;21.246;2022-09-24T06:51:21;100491.19;;;11.63;75.77
22662;BME280;11497;52.222;21.246;2022-09-24T06:53:52;100491.69;;;11.73;74.82
22662;BME280;11497;52.222;21.246;2022-09-24T06:56:20;100486.78;;;11.89;73.67
22662;BME280;11497;52.222;21.246;2022-09-24T06:58:48;100491.56;;;11.78;73.00
22662;BME280;11497;52.222;21.246;2022-09-24T07:01:15;100496.31;;;11.91;72.93
22662;BME280;11497;52.222;21.246;2022-09-24T07:03:43;100503.00;;;12.00;72.39
22662;BME280;11497;52.222;21.246;2022-09-24T07:06:11;100504.50;;;12.29;72.11
22662;BME280;11497;52.222;21.246;2022-09-24T07:08:39;100502.06;;;12.68;71.28
22662;BME280;11497;52.222;21.246;2022-09-24T07:11:06;100499.00;;;12.57;70.88
22662;BME280;11497;52.222;21.246;2022-09-24T07:13:35;100501.72;;;12.55;70.30
22662;BME280;11497;52.222;21.246;2022-09-24T07:16:03;100495.63;;;12.55;70.07
22662;BME280;11497;52.222;21.246;2022-09-24T07:18:31;100493.06;;;12.53;70.33
22662;BME280;11497;52.222;21.246;2022-09-24T07:20:58;100491.81;;;12.62;69.70
22662;BME280;11497;52.222;21.246;2022-09-24T07:23:26;100499.81;;;12.59;70.05
22662;BME280;11497;52.222;21.246;2022-09-24T07:25:55;100508.00;;;12.73;70.07
22662;BME280;11497;52.222;21.246;2022-09-24T07:28:24;100502.56;;;12.99;68.97
22662;BME280;11497;52.222;21.246;2022-09-24T07:30:59;100501.41;;;13.05;68.00
22662;BME280;11497;52.222;21.246;2022-09-24T07:33:29;100501.41;;;13.27;68.15
22662;BME280;11497;52.222;21.246;2022-09-24T07:35:57;100500.47;;;13.87;67.33
22662;BME280;11497;52.222;21.246;2022-09-24T07:38:25;100509.81;;;14.70;64.10
22662;BME280;11497;52.222;21.246;2022-09-24T07:40:56;100508.84;;;15.41;62.22
22662;BME280;11497;52.222;21.246;2022-09-24T07:43:25;100507.56;;;15.83;60.63
22662;BME280;11497;52.222;21.246;2022-09-24T07:45:53;100511.13;;;16.30;59.29
22662;BME280;11497;52.222;21.246;2022-09-24T07:48:22;100506.50;;;17.27;57.40
22662;BME280;11497;52.222;21.246;2022-09-24T07:50:51;100515.44;;;18.40;54.81
22662;BME280;11497;52.222;21.246;2022-09-24T07:53:18;100514.03;;;19.67;52.51
22662;BME280;11497;52.222;21.246;2022-09-24T07:55:48;100508.00;;;20.40;49.27
22662;BME280;11497;52.222;21.246;2022-09-24T07:58:16;100521.78;;;21.05;46.87
22662;BME280;11497;52.222;21.246;2022-09-24T08:00:43;100514.91;;;22.06;45.36
22662;BME280;11497;52.222;21.246;2022-09-24T08:03:11;100510.28;;;22.31;42.38
22662;BME280;11497;52.222;21.246;2022-09-24T08:05:44;100512.84;;;22.86;41.10
22662;BME280;11497;52.222;21.246;2022-09-24T08:08:12;100511.00;;;22.10;40.73
22662;BME280;11497;52.222;21.246;2022-09-24T08:10:40;100512.00;;;22.09;40.69
22662;BME280;11497;52.222;21.246;2022-09-24T08:13:09;100519.56;;;21.69;40.17
22662;BME280;11497;52.222;21.246;2022-09-24T08:15:37;100523.28;;;21.44;39.60
22662;BME280;11497;52.222;21.246;2022-09-24T08:18:05;100519.00;;;21.07;40.35
22662;BME280;11497;52.222;21.246;2022-09-24T08:20:35;100521.59;;;20.48;40.72
22662;BME280;11497;52.222;21.246;2022-09-24T08:23:06;100521.53;;;20.73;42.24
22662;BME280;11497;52.222;21.246;2022-09-24T08:25:34;100522.63;;;20.58;41.68
22662;BME280;11497;52.222;21.246;2022-09-24T08:28:05;100519.81;;;20.72;40.78
22662;BME280;11497;52.222;21.246;2022-09-24T08:30:34;100525.81;;;21.11;40.64
22662;BME280;11497;52.222;21.246;2022-09-24T08:33:02;100511.94;;;21.65;39.95
22662;BME280;11497;52.222;21.246;2022-09-24T08:35:32;100516.81;;;22.27;38.68
22662;BME280;11497;52.222;21.246;2022-09-24T08:38:01;100515.84;;;21.94;38.15
22662;BME280;11497;52.222;21.246;2022-09-24T08:40:35;100516.34;;;22.10;38.10
22662;BME280;11497;52.222;21.246;2022-09-24T08:43:23;100521.78;;;22.42;38.69
22662;BME280;11497;52.222;21.246;2022-09-24T08:45:58;100515.69;;;23.27;37.73
22662;BME280;11497;52.222;21.246;2022-09-24T08:48:49;100522.72;;;23.48;36.29
22662;BME280;11497;52.222;21.246;2022-09-24T08:51:20;100519.97;;;23.18;35.91
22662;BME280;11497;52.222;21.246;2022-09-24T08:54:10;100514.41;;;23.63;35.62
22662;BME280;11497;52.222;21.246;2022-09-24T08:56:45;100522.38;;;23.74;35.49
22662;BME280;11497;52.222;21.246;2022-09-24T08:59:26;100514.53;;;23.82;34.73
22662;BME280;11497;52.222;21.246;2022-09-24T09:04:59;100521.91;;;25.18;33.33
22662;BME280;11497;52.222;21.246;2022-09-24T09:07:55;100517.34;;;25.57;32.04
22662;BME280;11497;52.222;21.246;2022-09-24T09:10:35;100515.91;;;25.82;31.59
22662;BME280;11497;52.222;21.246;2022-09-24T09:13:12;100508.94;;;26.36;30.95
22662;BME280;11497;52.222;21.246;2022-09-24T09:15:45;100508.56;;;27.29;30.20
22662;BME280;11497;52.222;21.246;2022-09-24T09:21:24;100513.53;;;28.28;28.96
22662;BME280;11497;52.222;21.246;2022-09-24T09:23:56;100507.41;;;28.09;26.97
22662;BME280;11497;52.222;21.246;2022-09-24T09:26:26;100507.50;;;28.34;26.97
22662;BME280;11497;52.222;21.246;2022-09-24T09:28:58;100506.91;;;28.64;26.45
22662;BME280;11497;52.222;21.246;2022-09-24T09:31:44;100502.25;;;28.24;26.07
22662;BME280;11497;52.222;21.246;2022-09-24T09:37:37;100499.03;;;27.17;26.74
22662;BME280;11497;52.222;21.246;2022-09-24T09:42:38;100500.50;;;25.18;29.35
22662;BME280;11497;52.222;21.246;2022-09-24T09:47:55;100493.78;;;27.33;28.58
22662;BME280;11497;52.222;21.246;2022-09-24T09:51:00;100493.84;;;28.27;27.38
22662;BME280;11497;52.222;21.246;2022-09-24T09:53:31;100494.03;;;28.84;26.32
22662;BME280;11497;52.222;21.246;2022-09-24T09:56:01;100504.81;;;28.34;25.94
22662;BME280;11497;52.222;21.246;2022-09-24T10:01:35;100492.59;;;27.54;27.00
22662;BME280;11497;52.222;21.246;2022-09-24T10:04:04;100487.88;;;26.59;26.58
22662;BME280;11497;52.222;21.246;2022-09-24T10:06:35;100484.66;;;24.47;28.64
22662;BME280;11497;52.222;21.246;2022-09-24T10:09:17;100483.78;;;23.25;29.67
22662;BME280;11497;52.222;21.246;2022-09-24T10:11:48;100480.22;;;22.17;30.77
22662;BME280;11497;52.222;21.246;2022-09-24T10:14:16;100485.03;;;21.45;32.48
22662;BME280;11497;52.222;21.246;2022-09-24T10:16:49;100486.94;;;20.73;33.50
22662;BME280;11497;52.222;21.246;2022-09-24T10:19:20;100484.03;;;20.03;34.71
22662;BME280;11497;52.222;21.246;2022-09-24T10:21:49;100477.47;;;19.45;35.84
22662;BME280;11497;52.222;21.246;2022-09-24T10:24:22;100477.44;;;19.20;37.19
22662;BME280;11497;52.222;21.246;2022-09-24T10:26:52;100472.44;;;19.03;37.87
22662;BME280;11497;52.222;21.246;2022-09-24T10:29:24;100471.25;;;18.94;38.58
22662;BME280;11497;52.222;21.246;2022-09-24T10:32:17;100471.34;;;18.92;38.19
22662;BME280;11497;52.222;21.246;2022-09-24T10:35:00;100465.94;;;19.07;38.24
22662;BME280;11497;52.222;21.246;2022-09-24T10:37:29;100468.41;;;19.10;38.26
22662;BME280;11497;52.222;21.246;2022-09-24T10:40:19;100461.19;;;18.99;36.91
22662;BME280;11497;52.222;21.246;2022-09-24T10:43:02;100461.50;;;19.07;36.59
22662;BME280;11497;52.222;21.246;2022-09-24T10:46:02;100463.53;;;19.16;36.74
22662;BME280;11497;52.222;21.246;2022-09-24T10:57:27;100443.09;;;18.52;35.92
22662;BME280;11497;52.222;21.246;2022-09-24T11:00:20;100450.91;;;18.26;36.39
22662;BME280;11497;52.222;21.246;2022-09-24T11:03:43;100453.63;;;17.98;37.39
22662;BME280;11497;52.222;21.246;2022-09-24T11:09:30;100462.97;;;17.33;37.92
22662;BME280;11497;52.222;21.246;2022-09-24T11:12:14;100451.22;;;17.22;38.78
22662;BME280;11497;52.222;21.246;2022-09-24T11:17:31;100449.00;;;17.01;40.32
22662;BME280;11497;52.222;21.246;2022-09-24T11:20:28;100447.06;;;17.18;39.87
22662;BME280;11497;52.222;21.246;2022-09-24T11:28:38;100441.31;;;16.96;41.59
22662;BME280;11497;52.222;21.246;2022-09-24T11:34:11;100439.78;;;17.36;41.26
22662;BME280;11497;52.222;21.246;2022-09-24T11:45:43;100440.19;;;18.01;39.71
22662;BME280;11497;52.222;21.246;2022-09-24T11:51:17;100430.56;;;18.00;39.52
22662;BME280;11497;52.222;21.246;2022-09-24T11:53:53;100431.31;;;18.29;39.06
22662;BME280;11497;52.222;21.246;2022-09-24T11:56:31;100432.16;;;18.29;39.17
22662;BME280;11497;52.222;21.246;2022-09-24T11:59:16;100431.13;;;18.32;40.04
22662;BME280;11497;52.222;21.246;2022-09-24T12:01:58;100428.94;;;18.39;39.72
22662;BME280;11497;52.222;21.246;2022-09-24T12:05:25;100421.72;;;18.41;39.40
22662;BME280;11497;52.222;21.246;2022-09-24T12:10:21;100418.25;;;17.99;39.75
22662;BME280;11497;52.222;21.246;2022-09-24T12:12:58;100419.81;;;17.75;40.60
22662;BME280;11497;52.222;21.246;2022-09-24T12:15:43;100414.09;;;17.52;40.50
22662;BME280;11497;52.222;21.246;2022-09-24T12:18:24;100411.44;;;17.38;41.10
22662;BME280;11497;52.222;21.246;2022-09-24T12:21:01;100410.06;;;17.33;41.65
22662;BME280;11497;52.222;21.246;2022-09-24T12:23:36;100405.50;;;17.63;42.21
22662;BME280;11497;52.222;21.246;2022-09-24T12:26:06;100410.44;;;17.55;43.07
22662;BME280;11497;52.222;21.246;2022-09-24T12:32:02;100417.31;;;17.86;42.48
22662;BME280;11497;52.222;21.246;2022-09-24T12:35:17;100409.28;;;18.28;41.13
22662;BME280;11497;52.222;21.246;2022-09-24T12:37:51;100401.91;;;18.60;40.10
22662;BME280;11497;52.222;21.246;2022-09-24T12:43:26;100404.44;;;19.02;38.12
22662;BME280;11497;52.222;21.246;2022-09-24T12:46:03;100400.28;;;19.23;38.78
22662;BME280;11497;52.222;21.246;2022-09-24T12:48:36;100394.66;;;19.40;37.38
22662;BME280;11497;52.222;21.246;2022-09-24T12:51:06;100389.69;;;19.23;37.11
22662;BME280;11497;52.222;21.246;2022-09-24T12:53:40;100388.94;;;19.21;36.80
22662;BME280;11497;52.222;21.246;2022-09-24T12:56:09;100389.16;;;19.05;36.59
22662;BME280;11497;52.222;21.246;2022-09-24T12:58:44;100391.56;;;18.83;37.36
22662;BME280;11497;52.222;21.246;2022-09-24T13:01:32;100387.50;;;18.77;36.38
22662;BME280;11497;52.222;21.246;2022-09-24T13:04:26;100389.63;;;18.72;36.63
22662;BME280;11497;52.222;21.246;2022-09-24T13:06:52;100389.88;;;18.55;37.04
22662;BME280;11497;52.222;21.246;2022-09-24T13:09:33;100382.44;;;18.47;37.10
22662;BME280;11497;52.222;21.246;2022-09-24T13:14:45;100381.97;;;17.87;36.88
22662;BME280;11497;52.222;21.246;2022-09-24T13:17:16;100389.94;;;17.73;37.14
22662;BME280;11497;52.222;21.246;2022-09-24T13:19:46;100391.84;;;17.71;36.95
22662;BME280;11497;52.222;21.246;2022-09-24T13:27:37;100386.31;;;17.17;39.74
22662;BME280;11497;52.222;21.246;2022-09-24T13:32:55;100380.06;;;17.04;39.62
22662;BME280;11497;52.222;21.246;2022-09-24T13:35:32;100384.69;;;17.00;39.38
22662;BME280;11497;52.222;21.246;2022-09-24T13:38:19;100377.50;;;17.02;39.21
22662;BME280;11497;52.222;21.246;2022-09-24T13:40:55;100375.72;;;16.88;39.44
22662;BME280;11497;52.222;21.246;2022-09-24T13:44:19;100375.91;;;17.00;39.06
22662;BME280;11497;52.222;21.246;2022-09-24T13:46:26;100369.09;;;16.81;39.14
22662;BME280;11497;52.222;21.246;2022-09-24T13:49:02;100377.19;;;16.78;40.13
22662;BME280;11497;52.222;21.246;2022-09-24T13:51:36;100371.69;;;16.67;40.91
22662;BME280;11497;52.222;21.246;2022-09-24T13:57:05;100366.13;;;16.42;40.68
22662;BME280;11497;52.222;21.246;2022-09-24T13:59:35;100367.06;;;16.41;41.90
22662;BME280;11497;52.222;21.246;2022-09-24T14:02:18;100363.81;;;16.36;41.35
22662;BME280;11497;52.222;21.246;2022-09-24T14:04:53;100362.06;;;16.20;41.70
22662;BME280;11497;52.222;21.246;2022-09-24T14:07:22;100366.31;;;16.07;40.96
22662;BME280;11497;52.222;21.246;2022-09-24T14:10:04;100369.03;;;16.06;42.03
22662;BME280;11497;52.222;21.246;2022-09-24T14:12:32;100378.00;;;15.87;42.54
22662;BME280;11497;52.222;21.246;2022-09-24T14:15:03;100370.78;;;15.91;41.93
22662;BME280;11497;52.222;21.246;2022-09-24T14:17:31;100370.75;;;15.75;42.17
22662;BME280;11497;52.222;21.246;2022-09-24T14:19:59;100364.97;;;15.69;42.44
22662;BME280;11497;52.222;21.246;2022-09-24T14:22:30;100359.50;;;15.72;42.33
22662;BME280;11497;52.222;21.246;2022-09-24T14:25:09;100355.50;;;15.64;42.82
22662;BME280;11497;52.222;21.246;2022-09-24T14:27:42;100363.00;;;15.56;43.42
22662;BME280;11497;52.222;21.246;2022-09-24T14:30:32;100371.06;;;15.53;43.68
22662;BME280;11497;52.222;21.246;2022-09-24T14:33:15;100358.16;;;15.64;44.12
22662;BME280;11497;52.222;21.246;2022-09-24T14:35:47;100364.44;;;15.62;44.14
22662;BME280;11497;52.222;21.246;2022-09-24T14:38:22;100359.66;;;15.53;44.02
22662;BME280;11497;52.222;21.246;2022-09-24T14:40:54;100352.38;;;15.58;44.21
22662;BME280;11497;52.222;21.246;2022-09-24T14:46:07;100361.47;;;15.35;44.44